sensor_id;sensor_type;location;lat;lon;timestamp;P1;durP1;ratioP1;P2;durP2;ratioP2
66870;SDS011;53780;44.998;9.926;2023-08-31T00:01:36;3.83;;;1.20;;
66870;SDS011;53780;44.998;9.926;2023-08-31T00:04:41;4.40;;;1.25;;
66870;SDS011;53780;44.998;9.926;2023-08-31T00:07:45;5.32;;;1.20;;
66870;SDS011;53780;44.998;9.926;2023-08-31T00:10:56;3.67;;;1.30;;
66870;SDS011;53780;44.998;9.926;2023-08-31T00:14:01;3.88;;;1.65;;
66870;SDS011;53780;44.998;9.926;2023-08-31T00:17:05;3.40;;;1.33;;
66870;SDS011;53780;44.998;9.926;2023-08-31T00:20:09;3.55;;;1.48;;
66870;SDS011;53780;44.998;9.926;2023-08-31T00:23:15;4.82;;;1.77;;
66870;SDS011;53780;44.998;9.926;2023-08-31T00:26:18;4.90;;;1.70;;
66870;SDS011;53780;44.998;9.926;2023-08-31T00:29:25;5.57;;;1.80;;
66870;SDS011;53780;44.998;9.926;2023-08-31T00:32:30;5.03;;;2.10;;
66870;SDS011;53780;44.998;9.926;2023-08-31T00:35:33;5.47;;;1.80;;
66870;SDS011;53780;44.998;9.926;2023-08-31T00:38:38;5.40;;;2.00;;
66870;SDS011;53780;44.998;9.926;2023-08-31T00:41:42;5.53;;;1.90;;
66870;SDS011;53780;44.998;9.926;2023-08-31T00:44:47;4.70;;;1.98;;
66870;SDS011;53780;44.998;9.926;2023-08-31T00:47:52;4.03;;;1.90;;
66870;SDS011;53780;44.998;9.926;2023-08-31T00:50:57;4.95;;;1.98;;
66870;SDS011;53780;44.998;9.926;2023-08-31T00:54:01;4.32;;;1.80;;
66870;SDS011;53780;44.998;9.926;2023-08-31T00:57:06;4.45;;;1.95;;
66870;SDS011;53780;44.998;9.926;2023-08-31T01:00:10;5.00;;;1.90;;
66870;SDS011;53780;44.998;9.926;2023-08-31T01:03:26;4.53;;;1.70;;
66870;SDS011;53780;44.998;9.926;2023-08-31T01:10:28;3.22;;;1.20;;
66870;SDS011;53780;44.998;9.926;2023-08-31T01:13:38;4.85;;;1.80;;
66870;SDS011;53780;44.998;9.926;2023-08-31T01:16:45;5.20;;;1.40;;
66870;SDS011;53780;44.998;9.926;2023-08-31T01:19:53;4.43;;;1.60;;
66870;SDS011;53780;44.998;9.926;2023-08-31T01:23:00;4.85;;;1.55;;
66870;SDS011;53780;44.998;9.926;2023-08-31T01:26:10;4.18;;;1.50;;
66870;SDS011;53780;44.998;9.926;2023-08-31T01:29:14;4.45;;;1.63;;
66870;SDS011;53780;44.998;9.926;2023-08-31T01:32:19;4.68;;;1.70;;
66870;SDS011;53780;44.998;9.926;2023-08-31T01:35:23;5.23;;;2.10;;
66870;SDS011;53780;44.998;9.926;2023-08-31T01:38:28;5.43;;;1.90;;
66870;SDS011;53780;44.998;9.926;2023-08-31T01:41:36;5.22;;;1.77;;
66870;SDS011;53780;44.998;9.926;2023-08-31T01:44:41;5.05;;;1.88;;
66870;SDS011;53780;44.998;9.926;2023-08-31T01:47:46;4.93;;;1.90;;
66870;SDS011;53780;44.998;9.926;2023-08-31T01:50:50;5.20;;;1.60;;
66870;SDS011;53780;44.998;9.926;2023-08-31T01:53:54;4.63;;;1.83;;
66870;SDS011;53780;44.998;9.926;2023-08-31T01:56:58;5.38;;;2.13;;
66870;SDS011;53780;44.998;9.926;2023-08-31T02:00:01;5.35;;;2.03;;
66870;SDS011;53780;44.998;9.926;2023-08-31T02:03:18;5.97;;;2.33;;
66870;SDS011;53780;44.998;9.926;2023-08-31T02:06:21;6.53;;;2.23;;
66870;SDS011;53780;44.998;9.926;2023-08-31T02:09:25;5.70;;;2.40;;
66870;SDS011;53780;44.998;9.926;2023-08-31T02:12:29;4.65;;;2.10;;
66870;SDS011;53780;44.998;9.926;2023-08-31T02:15:33;4.05;;;1.80;;
66870;SDS011;53780;44.998;9.926;2023-08-31T02:18:37;4.78;;;1.80;;
66870;SDS011;53780;44.998;9.926;2023-08-31T02:21:40;4.10;;;1.83;;
66870;SDS011;53780;44.998;9.926;2023-08-31T02:24:44;6.35;;;1.98;;
66870;SDS011;53780;44.998;9.926;2023-08-31T02:27:48;7.05;;;2.10;;
66870;SDS011;53780;44.998;9.926;2023-08-31T02:30:59;6.57;;;2.10;;
66870;SDS011;53780;44.998;9.926;2023-08-31T02:34:08;5.30;;;2.20;;
66870;SDS011;53780;44.998;9.926;2023-08-31T02:37:11;4.00;;;2.17;;
66870;SDS011;53780;44.998;9.926;2023-08-31T02:40:15;4.57;;;2.40;;
66870;SDS011;53780;44.998;9.926;2023-08-31T02:43:19;5.07;;;2.58;;
66870;SDS011;53780;44.998;9.926;2023-08-31T02:46:26;5.18;;;2.10;;
66870;SDS011;53780;44.998;9.926;2023-08-31T02:49:29;5.97;;;2.00;;
66870;SDS011;53780;44.998;9.926;2023-08-31T02:52:33;5.70;;;1.73;;
66870;SDS011;53780;44.998;9.926;2023-08-31T02:55:37;4.07;;;1.30;;
66870;SDS011;53780;44.998;9.926;2023-08-31T02:58:41;3.97;;;1.65;;
66870;SDS011;53780;44.998;9.926;2023-08-31T03:01:45;4.05;;;1.60;;
66870;SDS011;53780;44.998;9.926;2023-08-31T03:04:52;4.22;;;1.65;;
66870;SDS011;53780;44.998;9.926;2023-08-31T03:07:56;3.63;;;1.30;;
66870;SDS011;53780;44.998;9.926;2023-08-31T03:11:01;3.53;;;1.40;;
66870;SDS011;53780;44.998;9.926;2023-08-31T03:14:05;3.17;;;1.30;;
66870;SDS011;53780;44.998;9.926;2023-08-31T03:17:09;4.00;;;1.70;;
66870;SDS011;53780;44.998;9.926;2023-08-31T03:20:14;4.97;;;1.67;;
66870;SDS011;53780;44.998;9.926;2023-08-31T03:23:19;3.77;;;1.60;;
66870;SDS011;53780;44.998;9.926;2023-08-31T03:26:22;4.88;;;2.25;;
66870;SDS011;53780;44.998;9.926;2023-08-31T03:29:27;4.28;;;1.60;;
66870;SDS011;53780;44.998;9.926;2023-08-31T03:32:32;3.70;;;1.60;;
66870;SDS011;53780;44.998;9.926;2023-08-31T03:35:36;3.95;;;1.80;;
66870;SDS011;53780;44.998;9.926;2023-08-31T03:38:40;5.30;;;2.03;;
66870;SDS011;53780;44.998;9.926;2023-08-31T03:41:44;5.97;;;2.10;;
66870;SDS011;53780;44.998;9.926;2023-08-31T03:44:47;5.97;;;2.20;;
66870;SDS011;53780;44.998;9.926;2023-08-31T03:47:53;4.35;;;2.25;;
66870;SDS011;53780;44.998;9.926;2023-08-31T03:50:57;5.45;;;2.40;;
66870;SDS011;53780;44.998;9.926;2023-08-31T03:54:01;5.30;;;2.27;;
66870;SDS011;53780;44.998;9.926;2023-08-31T03:57:05;5.00;;;2.58;;
66870;SDS011;53780;44.998;9.926;2023-08-31T04:00:09;5.18;;;2.70;;
66870;SDS011;53780;44.998;9.926;2023-08-31T04:03:18;5.03;;;2.60;;
66870;SDS011;53780;44.998;9.926;2023-08-31T04:06:24;5.82;;;2.83;;
66870;SDS011;53780;44.998;9.926;2023-08-31T04:09:28;4.57;;;2.33;;
66870;SDS011;53780;44.998;9.926;2023-08-31T04:12:32;5.93;;;2.60;;
66870;SDS011;53780;44.998;9.926;2023-08-31T04:15:36;6.10;;;2.75;;
66870;SDS011;53780;44.998;9.926;2023-08-31T04:18:40;5.10;;;2.70;;
66870;SDS011;53780;44.998;9.926;2023-08-31T04:21:44;7.25;;;2.85;;
66870;SDS011;53780;44.998;9.926;2023-08-31T04:24:47;5.87;;;3.20;;
66870;SDS011;53780;44.998;9.926;2023-08-31T04:27:51;5.70;;;3.20;;
66870;SDS011;53780;44.998;9.926;2023-08-31T04:30:55;6.28;;;3.33;;
66870;SDS011;53780;44.998;9.926;2023-08-31T04:33:59;6.88;;;3.92;;
66870;SDS011;53780;44.998;9.926;2023-08-31T04:37:03;7.15;;;4.00;;
66870;SDS011;53780;44.998;9.926;2023-08-31T04:40:07;8.50;;;3.97;;
66870;SDS011;53780;44.998;9.926;2023-08-31T04:43:13;8.60;;;4.72;;
66870;SDS011;53780;44.998;9.926;2023-08-31T04:46:16;9.35;;;4.30;;
66870;SDS011;53780;44.998;9.926;2023-08-31T04:49:20;7.72;;;4.00;;
66870;SDS011;53780;44.998;9.926;2023-08-31T04:52:24;8.18;;;4.20;;
66870;SDS011;53780;44.998;9.926;2023-08-31T04:55:28;10.77;;;4.00;;
66870;SDS011;53780;44.998;9.926;2023-08-31T04:58:32;9.25;;;4.18;;
66870;SDS011;53780;44.998;9.926;2023-08-31T05:01:36;7.03;;;4.47;;
66870;SDS011;53780;44.998;9.926;2023-08-31T05:04:40;7.40;;;4.60;;
66870;SDS011;53780;44.998;9.926;2023-08-31T05:07:44;10.75;;;5.38;;
66870;SDS011;53780;44.998;9.926;2023-08-31T05:10:47;6.70;;;4.80;;
66870;SDS011;53780;44.998;9.926;2023-08-31T05:13:51;7.13;;;4.82;;
66870;SDS011;53780;44.998;9.926;2023-08-31T05:16:55;7.68;;;4.90;;
66870;SDS011;53780;44.998;9.926;2023-08-31T05:19:59;10.77;;;5.15;;
66870;SDS011;53780;44.998;9.926;2023-08-31T05:23:03;7.47;;;4.75;;
66870;SDS011;53780;44.998;9.926;2023-08-31T05:26:07;7.73;;;5.37;;
66870;SDS011;53780;44.998;9.926;2023-08-31T05:29:10;8.27;;;5.50;;
66870;SDS011;53780;44.998;9.926;2023-08-31T05:32:14;8.52;;;5.50;;
66870;SDS011;53780;44.998;9.926;2023-08-31T05:35:18;11.07;;;6.32;;
66870;SDS011;53780;44.998;9.926;2023-08-31T05:38:23;9.18;;;6.20;;
66870;SDS011;53780;44.998;9.926;2023-08-31T05:41:27;10.63;;;5.93;;
66870;SDS011;53780;44.998;9.926;2023-08-31T05:44:30;11.02;;;6.88;;
66870;SDS011;53780;44.998;9.926;2023-08-31T05:47:34;10.63;;;7.25;;
66870;SDS011;53780;44.998;9.926;2023-08-31T05:50:39;8.80;;;6.75;;
66870;SDS011;53780;44.998;9.926;2023-08-31T05:53:42;10.82;;;6.07;;
66870;SDS011;53780;44.998;9.926;2023-08-31T05:56:46;10.03;;;6.33;;
66870;SDS011;53780;44.998;9.926;2023-08-31T05:59:51;12.05;;;6.65;;
66870;SDS011;53780;44.998;9.926;2023-08-31T06:02:54;10.30;;;6.70;;
66870;SDS011;53780;44.998;9.926;2023-08-31T06:05:59;11.65;;;5.40;;
66870;SDS011;53780;44.998;9.926;2023-08-31T06:09:03;9.55;;;6.15;;
66870;SDS011;53780;44.998;9.926;2023-08-31T06:12:09;8.00;;;5.80;;
66870;SDS011;53780;44.998;9.926;2023-08-31T06:15:13;8.95;;;6.20;;
66870;SDS011;53780;44.998;9.926;2023-08-31T06:18:18;13.18;;;7.15;;
66870;SDS011;53780;44.998;9.926;2023-08-31T06:21:22;13.60;;;7.43;;
66870;SDS011;53780;44.998;9.926;2023-08-31T06:24:26;12.52;;;8.18;;
66870;SDS011;53780;44.998;9.926;2023-08-31T06:27:29;11.03;;;8.50;;
66870;SDS011;53780;44.998;9.926;2023-08-31T06:30:34;11.60;;;7.57;;
66870;SDS011;53780;44.998;9.926;2023-08-31T06:33:38;13.43;;;9.13;;
66870;SDS011;53780;44.998;9.926;2023-08-31T06:36:42;10.48;;;7.32;;
66870;SDS011;53780;44.998;9.926;2023-08-31T06:39:45;13.45;;;8.18;;
66870;SDS011;53780;44.998;9.926;2023-08-31T06:42:49;11.07;;;7.80;;
66870;SDS011;53780;44.998;9.926;2023-08-31T06:45:53;14.07;;;8.48;;
66870;SDS011;53780;44.998;9.926;2023-08-31T06:48:57;10.57;;;8.07;;
66870;SDS011;53780;44.998;9.926;2023-08-31T06:52:00;10.57;;;7.53;;
66870;SDS011;53780;44.998;9.926;2023-08-31T06:55:06;13.13;;;8.02;;
66870;SDS011;53780;44.998;9.926;2023-08-31T06:58:10;11.80;;;7.57;;
66870;SDS011;53780;44.998;9.926;2023-08-31T07:01:14;12.02;;;7.50;;
66870;SDS011;53780;44.998;9.926;2023-08-31T07:04:17;11.50;;;7.82;;
66870;SDS011;53780;44.998;9.926;2023-08-31T07:07:21;11.02;;;8.00;;
66870;SDS011;53780;44.998;9.926;2023-08-31T07:10:25;13.45;;;8.40;;
66870;SDS011;53780;44.998;9.926;2023-08-31T07:13:29;9.77;;;6.60;;
66870;SDS011;53780;44.998;9.926;2023-08-31T07:16:33;10.93;;;6.97;;
66870;SDS011;53780;44.998;9.926;2023-08-31T07:19:36;9.48;;;6.22;;
66870;SDS011;53780;44.998;9.926;2023-08-31T07:22:41;8.52;;;5.05;;
66870;SDS011;53780;44.998;9.926;2023-08-31T07:25:44;7.30;;;4.70;;
66870;SDS011;53780;44.998;9.926;2023-08-31T07:28:49;8.17;;;4.67;;
66870;SDS011;53780;44.998;9.926;2023-08-31T07:31:52;7.97;;;4.70;;
66870;SDS011;53780;44.998;9.926;2023-08-31T07:34:56;7.80;;;4.68;;
66870;SDS011;53780;44.998;9.926;2023-08-31T07:38:00;8.00;;;4.88;;
66870;SDS011;53780;44.998;9.926;2023-08-31T07:41:04;9.50;;;4.60;;
66870;SDS011;53780;44.998;9.926;2023-08-31T07:44:08;7.33;;;4.60;;
66870;SDS011;53780;44.998;9.926;2023-08-31T07:47:11;7.25;;;4.32;;
66870;SDS011;53780;44.998;9.926;2023-08-31T07:50:16;7.78;;;4.93;;
66870;SDS011;53780;44.998;9.926;2023-08-31T07:53:19;7.85;;;4.10;;
66870;SDS011;53780;44.998;9.926;2023-08-31T07:56:23;8.23;;;4.32;;
66870;SDS011;53780;44.998;9.926;2023-08-31T07:59:27;7.83;;;4.20;;
66870;SDS011;53780;44.998;9.926;2023-08-31T08:02:30;8.00;;;3.70;;
66870;SDS011;53780;44.998;9.926;2023-08-31T08:05:34;9.55;;;4.82;;
66870;SDS011;53780;44.998;9.926;2023-08-31T08:08:38;6.68;;;3.83;;
66870;SDS011;53780;44.998;9.926;2023-08-31T08:11:41;6.97;;;4.03;;
66870;SDS011;53780;44.998;9.926;2023-08-31T08:14:45;7.60;;;3.83;;
66870;SDS011;53780;44.998;9.926;2023-08-31T08:17:49;11.52;;;3.35;;
66870;SDS011;53780;44.998;9.926;2023-08-31T08:20:53;8.70;;;3.97;;
66870;SDS011;53780;44.998;9.926;2023-08-31T08:23:57;7.13;;;3.50;;
66870;SDS011;53780;44.998;9.926;2023-08-31T08:27:00;6.90;;;3.63;;
66870;SDS011;53780;44.998;9.926;2023-08-31T08:30:04;6.90;;;2.97;;
66870;SDS011;53780;44.998;9.926;2023-08-31T08:33:09;5.47;;;3.08;;
66870;SDS011;53780;44.998;9.926;2023-08-31T08:36:12;9.75;;;3.65;;
66870;SDS011;53780;44.998;9.926;2023-08-31T08:39:16;9.98;;;3.47;;
66870;SDS011;53780;44.998;9.926;2023-08-31T08:42:21;6.55;;;3.28;;
66870;SDS011;53780;44.998;9.926;2023-08-31T08:45:30;7.97;;;3.67;;
66870;SDS011;53780;44.998;9.926;2023-08-31T08:48:42;8.30;;;3.70;;
66870;SDS011;53780;44.998;9.926;2023-08-31T08:51:47;7.22;;;3.20;;
66870;SDS011;53780;44.998;9.926;2023-08-31T08:54:51;5.38;;;2.88;;
66870;SDS011;53780;44.998;9.926;2023-08-31T08:57:57;7.28;;;2.95;;
66870;SDS011;53780;44.998;9.926;2023-08-31T09:01:02;5.47;;;2.63;;
66870;SDS011;53780;44.998;9.926;2023-08-31T09:04:08;5.30;;;2.72;;
66870;SDS011;53780;44.998;9.926;2023-08-31T09:07:13;6.13;;;3.10;;
66870;SDS011;53780;44.998;9.926;2023-08-31T09:10:16;6.15;;;2.72;;
66870;SDS011;53780;44.998;9.926;2023-08-31T09:13:20;6.78;;;3.70;;
66870;SDS011;53780;44.998;9.926;2023-08-31T09:16:30;7.20;;;3.30;;
66870;SDS011;53780;44.998;9.926;2023-08-31T09:19:34;5.22;;;2.40;;
66870;SDS011;53780;44.998;9.926;2023-08-31T09:22:38;5.60;;;2.60;;
66870;SDS011;53780;44.998;9.926;2023-08-31T09:25:48;7.07;;;2.58;;
66870;SDS011;53780;44.998;9.926;2023-08-31T09:28:53;4.25;;;2.20;;
66870;SDS011;53780;44.998;9.926;2023-08-31T09:31:57;5.60;;;2.60;;
66870;SDS011;53780;44.998;9.926;2023-08-31T09:35:00;5.82;;;2.50;;
66870;SDS011;53780;44.998;9.926;2023-08-31T09:38:07;6.65;;;2.28;;
66870;SDS011;53780;44.998;9.926;2023-08-31T09:41:12;6.13;;;2.45;;
66870;SDS011;53780;44.998;9.926;2023-08-31T09:44:17;7.10;;;2.80;;
66870;SDS011;53780;44.998;9.926;2023-08-31T09:47:22;5.30;;;2.87;;
66870;SDS011;53780;44.998;9.926;2023-08-31T09:50:25;6.50;;;2.72;;
66870;SDS011;53780;44.998;9.926;2023-08-31T09:53:35;5.78;;;2.72;;
66870;SDS011;53780;44.998;9.926;2023-08-31T09:56:41;5.13;;;2.60;;
66870;SDS011;53780;44.998;9.926;2023-08-31T09:59:46;6.55;;;2.30;;
66870;SDS011;53780;44.998;9.926;2023-08-31T10:02:50;5.60;;;2.83;;
66870;SDS011;53780;44.998;9.926;2023-08-31T10:05:55;5.90;;;2.33;;
66870;SDS011;53780;44.998;9.926;2023-08-31T10:09:00;4.72;;;2.25;;
66870;SDS011;53780;44.998;9.926;2023-08-31T10:12:05;7.88;;;2.72;;
66870;SDS011;53780;44.998;9.926;2023-08-31T10:15:11;6.25;;;2.95;;
66870;SDS011;53780;44.998;9.926;2023-08-31T10:18:15;6.43;;;2.67;;
66870;SDS011;53780;44.998;9.926;2023-08-31T10:21:20;5.57;;;2.53;;
66870;SDS011;53780;44.998;9.926;2023-08-31T10:31:29;5.18;;;2.20;;
66870;SDS011;53780;44.998;9.926;2023-08-31T10:34:35;5.67;;;1.90;;
66870;SDS011;53780;44.998;9.926;2023-08-31T10:37:43;5.68;;;1.98;;
66870;SDS011;53780;44.998;9.926;2023-08-31T10:41:20;4.95;;;1.88;;
66870;SDS011;53780;44.998;9.926;2023-08-31T10:44:17;7.20;;;2.50;;
66870;SDS011;53780;44.998;9.926;2023-08-31T10:47:24;8.82;;;2.70;;
66870;SDS011;53780;44.998;9.926;2023-08-31T10:50:41;5.53;;;1.70;;
66870;SDS011;53780;44.998;9.926;2023-08-31T10:53:46;3.72;;;1.38;;
66870;SDS011;53780;44.998;9.926;2023-08-31T11:00:12;4.38;;;1.40;;
66870;SDS011;53780;44.998;9.926;2023-08-31T11:03:17;3.75;;;1.67;;
66870;SDS011;53780;44.998;9.926;2023-08-31T11:06:21;6.43;;;2.00;;
66870;SDS011;53780;44.998;9.926;2023-08-31T11:09:28;5.15;;;1.92;;
66870;SDS011;53780;44.998;9.926;2023-08-31T11:12:33;5.50;;;1.90;;
66870;SDS011;53780;44.998;9.926;2023-08-31T11:15:36;5.28;;;1.50;;
66870;SDS011;53780;44.998;9.926;2023-08-31T11:18:42;6.40;;;2.30;;
66870;SDS011;53780;44.998;9.926;2023-08-31T11:21:45;6.67;;;2.40;;
66870;SDS011;53780;44.998;9.926;2023-08-31T11:24:49;6.15;;;2.10;;
66870;SDS011;53780;44.998;9.926;2023-08-31T11:27:57;6.07;;;1.80;;
66870;SDS011;53780;44.998;9.926;2023-08-31T11:31:02;6.50;;;1.98;;
66870;SDS011;53780;44.998;9.926;2023-08-31T11:34:11;4.70;;;1.50;;
66870;SDS011;53780;44.998;9.926;2023-08-31T11:37:17;5.03;;;1.33;;
66870;SDS011;53780;44.998;9.926;2023-08-31T11:40:23;4.85;;;1.58;;
66870;SDS011;53780;44.998;9.926;2023-08-31T11:43:29;5.53;;;1.75;;
66870;SDS011;53780;44.998;9.926;2023-08-31T11:46:34;3.95;;;1.20;;
66870;SDS011;53780;44.998;9.926;2023-08-31T11:49:40;4.78;;;1.27;;
66870;SDS011;53780;44.998;9.926;2023-08-31T11:52:45;3.83;;;1.20;;
66870;SDS011;53780;44.998;9.926;2023-08-31T11:55:52;4.07;;;0.93;;
66870;SDS011;53780;44.998;9.926;2023-08-31T11:58:57;4.30;;;1.10;;
66870;SDS011;53780;44.998;9.926;2023-08-31T12:02:00;4.97;;;1.25;;
66870;SDS011;53780;44.998;9.926;2023-08-31T12:05:04;4.07;;;1.38;;
66870;SDS011;53780;44.998;9.926;2023-08-31T12:08:08;3.97;;;1.13;;
66870;SDS011;53780;44.998;9.926;2023-08-31T12:11:12;4.18;;;1.50;;
66870;SDS011;53780;44.998;9.926;2023-08-31T12:14:21;4.60;;;1.40;;
66870;SDS011;53780;44.998;9.926;2023-08-31T12:17:27;4.40;;;1.20;;
66870;SDS011;53780;44.998;9.926;2023-08-31T12:20:30;7.53;;;1.50;;
66870;SDS011;53780;44.998;9.926;2023-08-31T12:23:36;5.93;;;1.53;;
66870;SDS011;53780;44.998;9.926;2023-08-31T12:26:40;7.60;;;1.60;;
66870;SDS011;53780;44.998;9.926;2023-08-31T12:29:43;3.67;;;1.30;;
66870;SDS011;53780;44.998;9.926;2023-08-31T12:32:47;5.78;;;1.50;;
66870;SDS011;53780;44.998;9.926;2023-08-31T12:35:51;4.03;;;1.40;;
66870;SDS011;53780;44.998;9.926;2023-08-31T12:38:55;3.90;;;1.30;;
66870;SDS011;53780;44.998;9.926;2023-08-31T12:41:58;7.43;;;1.30;;
66870;SDS011;53780;44.998;9.926;2023-08-31T12:45:03;6.07;;;1.50;;
66870;SDS011;53780;44.998;9.926;2023-08-31T12:48:08;5.57;;;1.30;;
66870;SDS011;53780;44.998;9.926;2023-08-31T12:51:12;4.57;;;1.50;;
66870;SDS011;53780;44.998;9.926;2023-08-31T12:54:16;5.30;;;1.30;;
66870;SDS011;53780;44.998;9.926;2023-08-31T12:57:21;4.47;;;1.35;;
66870;SDS011;53780;44.998;9.926;2023-08-31T13:00:25;4.18;;;1.25;;
66870;SDS011;53780;44.998;9.926;2023-08-31T13:03:28;4.75;;;1.45;;
66870;SDS011;53780;44.998;9.926;2023-08-31T13:06:32;6.82;;;1.63;;
66870;SDS011;53780;44.998;9.926;2023-08-31T13:09:36;5.83;;;1.30;;
66870;SDS011;53780;44.998;9.926;2023-08-31T13:12:40;3.53;;;1.25;;
66870;SDS011;53780;44.998;9.926;2023-08-31T13:15:45;5.45;;;1.50;;
66870;SDS011;53780;44.998;9.926;2023-08-31T13:18:49;3.80;;;1.20;;
66870;SDS011;53780;44.998;9.926;2023-08-31T13:21:53;5.20;;;1.45;;
66870;SDS011;53780;44.998;9.926;2023-08-31T13:24:57;6.37;;;1.50;;
66870;SDS011;53780;44.998;9.926;2023-08-31T13:28:00;4.25;;;1.50;;
66870;SDS011;53780;44.998;9.926;2023-08-31T13:31:04;5.65;;;1.58;;
66870;SDS011;53780;44.998;9.926;2023-08-31T13:34:08;7.13;;;1.73;;
66870;SDS011;53780;44.998;9.926;2023-08-31T13:37:13;3.80;;;1.63;;
66870;SDS011;53780;44.998;9.926;2023-08-31T13:40:17;3.93;;;1.53;;
66870;SDS011;53780;44.998;9.926;2023-08-31T13:43:21;6.65;;;1.40;;
66870;SDS011;53780;44.998;9.926;2023-08-31T13:46:26;5.80;;;1.42;;
66870;SDS011;53780;44.998;9.926;2023-08-31T13:49:29;4.63;;;1.30;;
66870;SDS011;53780;44.998;9.926;2023-08-31T13:52:34;4.95;;;1.30;;
66870;SDS011;53780;44.998;9.926;2023-08-31T13:55:38;4.30;;;1.20;;
66870;SDS011;53780;44.998;9.926;2023-08-31T13:58:42;5.70;;;1.90;;
66870;SDS011;53780;44.998;9.926;2023-08-31T14:01:46;4.40;;;1.50;;
66870;SDS011;53780;44.998;9.926;2023-08-31T14:04:49;4.80;;;1.40;;
66870;SDS011;53780;44.998;9.926;2023-08-31T14:07:53;6.65;;;1.52;;
66870;SDS011;53780;44.998;9.926;2023-08-31T14:10:57;14.43;;;1.93;;
66870;SDS011;53780;44.998;9.926;2023-08-31T14:14:05;12.30;;;2.20;;
66870;SDS011;53780;44.998;9.926;2023-08-31T14:17:12;8.38;;;2.40;;
66870;SDS011;53780;44.998;9.926;2023-08-31T14:20:17;6.55;;;1.90;;
66870;SDS011;53780;44.998;9.926;2023-08-31T14:23:20;7.50;;;2.20;;
66870;SDS011;53780;44.998;9.926;2023-08-31T14:26:24;7.17;;;2.10;;
66870;SDS011;53780;44.998;9.926;2023-08-31T14:29:28;11.80;;;2.80;;
66870;SDS011;53780;44.998;9.926;2023-08-31T14:32:32;7.65;;;2.72;;
66870;SDS011;53780;44.998;9.926;2023-08-31T14:35:36;8.68;;;2.55;;
66870;SDS011;53780;44.998;9.926;2023-08-31T14:38:41;8.57;;;2.60;;
66870;SDS011;53780;44.998;9.926;2023-08-31T14:41:45;10.03;;;2.80;;
66870;SDS011;53780;44.998;9.926;2023-08-31T14:44:49;5.95;;;3.03;;
66870;SDS011;53780;44.998;9.926;2023-08-31T14:47:52;8.02;;;3.00;;
66870;SDS011;53780;44.998;9.926;2023-08-31T14:50:56;7.60;;;3.60;;
66870;SDS011;53780;44.998;9.926;2023-08-31T14:54:02;9.80;;;3.50;;
66870;SDS011;53780;44.998;9.926;2023-08-31T14:57:06;7.33;;;3.00;;
66870;SDS011;53780;44.998;9.926;2023-08-31T15:00:10;10.77;;;3.00;;
66870;SDS011;53780;44.998;9.926;2023-08-31T15:03:15;8.10;;;3.20;;
66870;SDS011;53780;44.998;9.926;2023-08-31T15:06:19;6.65;;;2.78;;
66870;SDS011;53780;44.998;9.926;2023-08-31T15:09:23;7.15;;;3.10;;
66870;SDS011;53780;44.998;9.926;2023-08-31T15:12:27;6.37;;;2.80;;
66870;SDS011;53780;44.998;9.926;2023-08-31T15:15:31;9.77;;;3.30;;
66870;SDS011;53780;44.998;9.926;2023-08-31T15:18:35;6.10;;;3.28;;
66870;SDS011;53780;44.998;9.926;2023-08-31T15:21:38;8.52;;;3.08;;
66870;SDS011;53780;44.998;9.926;2023-08-31T15:24:42;10.32;;;3.13;;
66870;SDS011;53780;44.998;9.926;2023-08-31T15:27:46;7.57;;;2.97;;
66870;SDS011;53780;44.998;9.926;2023-08-31T15:30:49;7.40;;;3.15;;
66870;SDS011;53780;44.998;9.926;2023-08-31T15:33:53;9.40;;;3.30;;
66870;SDS011;53780;44.998;9.926;2023-08-31T15:36:57;8.15;;;3.17;;
66870;SDS011;53780;44.998;9.926;2023-08-31T15:40:01;9.25;;;3.20;;
66870;SDS011;53780;44.998;9.926;2023-08-31T15:43:04;7.27;;;2.97;;
66870;SDS011;53780;44.998;9.926;2023-08-31T15:46:08;5.72;;;2.90;;
66870;SDS011;53780;44.998;9.926;2023-08-31T15:49:12;9.30;;;3.40;;
66870;SDS011;53780;44.998;9.926;2023-08-31T15:52:16;9.65;;;2.95;;
66870;SDS011;53780;44.998;9.926;2023-08-31T15:55:20;6.57;;;3.08;;
66870;SDS011;53780;44.998;9.926;2023-08-31T15:58:23;8.17;;;2.60;;
66870;SDS011;53780;44.998;9.926;2023-08-31T16:01:29;7.53;;;3.20;;
66870;SDS011;53780;44.998;9.926;2023-08-31T16:04:34;8.20;;;3.20;;
66870;SDS011;53780;44.998;9.926;2023-08-31T16:07:38;7.57;;;3.30;;
66870;SDS011;53780;44.998;9.926;2023-08-31T16:10:44;6.82;;;2.90;;
66870;SDS011;53780;44.998;9.926;2023-08-31T16:13:47;6.90;;;2.60;;
66870;SDS011;53780;44.998;9.926;2023-08-31T16:16:51;7.13;;;2.15;;
66870;SDS011;53780;44.998;9.926;2023-08-31T16:19:56;6.47;;;2.20;;
66870;SDS011;53780;44.998;9.926;2023-08-31T16:23:00;4.88;;;2.00;;
66870;SDS011;53780;44.998;9.926;2023-08-31T16:26:04;5.65;;;2.13;;
66870;SDS011;53780;44.998;9.926;2023-08-31T16:29:07;4.20;;;1.90;;
66870;SDS011;53780;44.998;9.926;2023-08-31T16:32:13;5.50;;;2.10;;
66870;SDS011;53780;44.998;9.926;2023-08-31T16:35:17;4.38;;;2.20;;
66870;SDS011;53780;44.998;9.926;2023-08-31T16:38:20;8.63;;;2.63;;
66870;SDS011;53780;44.998;9.926;2023-08-31T16:41:24;6.45;;;2.30;;
66870;SDS011;53780;44.998;9.926;2023-08-31T16:44:29;6.20;;;2.20;;
66870;SDS011;53780;44.998;9.926;2023-08-31T16:47:33;6.07;;;2.08;;
66870;SDS011;53780;44.998;9.926;2023-08-31T16:50:37;6.70;;;2.38;;
66870;SDS011;53780;44.998;9.926;2023-08-31T16:53:42;6.70;;;2.35;;
66870;SDS011;53780;44.998;9.926;2023-08-31T16:56:46;6.15;;;2.13;;
66870;SDS011;53780;44.998;9.926;2023-08-31T16:59:51;4.80;;;1.97;;
66870;SDS011;53780;44.998;9.926;2023-08-31T17:02:55;4.88;;;2.22;;
66870;SDS011;53780;44.998;9.926;2023-08-31T17:05:59;8.13;;;2.50;;
66870;SDS011;53780;44.998;9.926;2023-08-31T17:09:04;6.72;;;2.22;;
66870;SDS011;53780;44.998;9.926;2023-08-31T17:12:09;5.03;;;2.20;;
66870;SDS011;53780;44.998;9.926;2023-08-31T17:15:13;6.07;;;2.30;;
66870;SDS011;53780;44.998;9.926;2023-08-31T17:18:17;6.25;;;2.00;;
66870;SDS011;53780;44.998;9.926;2023-08-31T17:21:20;7.03;;;2.30;;
66870;SDS011;53780;44.998;9.926;2023-08-31T17:24:24;8.52;;;2.72;;
66870;SDS011;53780;44.998;9.926;2023-08-31T17:27:28;7.65;;;2.53;;
66870;SDS011;53780;44.998;9.926;2023-08-31T17:30:32;5.80;;;2.60;;
66870;SDS011;53780;44.998;9.926;2023-08-31T17:33:35;7.03;;;2.70;;
66870;SDS011;53780;44.998;9.926;2023-08-31T17:36:40;6.55;;;2.50;;
66870;SDS011;53780;44.998;9.926;2023-08-31T17:39:44;7.28;;;2.70;;
66870;SDS011;53780;44.998;9.926;2023-08-31T17:42:48;7.60;;;3.38;;
66870;SDS011;53780;44.998;9.926;2023-08-31T17:45:52;9.47;;;3.20;;
66870;SDS011;53780;44.998;9.926;2023-08-31T17:48:56;6.63;;;2.88;;
66870;SDS011;53780;44.998;9.926;2023-08-31T17:52:01;6.75;;;3.30;;
66870;SDS011;53780;44.998;9.926;2023-08-31T17:55:05;6.80;;;3.20;;
66870;SDS011;53780;44.998;9.926;2023-08-31T17:58:10;6.78;;;3.40;;
66870;SDS011;53780;44.998;9.926;2023-08-31T18:01:14;7.13;;;2.80;;
66870;SDS011;53780;44.998;9.926;2023-08-31T18:04:18;7.78;;;3.08;;
66870;SDS011;53780;44.998;9.926;2023-08-31T18:07:21;8.48;;;3.20;;
66870;SDS011;53780;44.998;9.926;2023-08-31T18:10:25;9.55;;;3.42;;
66870;SDS011;53780;44.998;9.926;2023-08-31T18:13:29;8.68;;;3.20;;
66870;SDS011;53780;44.998;9.926;2023-08-31T18:16:33;8.20;;;3.30;;
66870;SDS011;53780;44.998;9.926;2023-08-31T18:19:37;6.47;;;3.10;;
66870;SDS011;53780;44.998;9.926;2023-08-31T18:22:41;8.23;;;3.78;;
66870;SDS011;53780;44.998;9.926;2023-08-31T18:25:46;7.78;;;3.47;;
66870;SDS011;53780;44.998;9.926;2023-08-31T18:28:53;6.43;;;3.03;;
66870;SDS011;53780;44.998;9.926;2023-08-31T18:32:06;7.30;;;3.50;;
66870;SDS011;53780;44.998;9.926;2023-08-31T18:35:11;7.82;;;3.58;;
66870;SDS011;53780;44.998;9.926;2023-08-31T18:38:14;9.13;;;3.85;;
66870;SDS011;53780;44.998;9.926;2023-08-31T18:41:18;8.75;;;3.70;;
66870;SDS011;53780;44.998;9.926;2023-08-31T18:44:22;10.30;;;3.60;;